Time;durP1;ratioP1;P1;durP2;ratioP2;P2;SDS_P1;SDS_P2;PMS_P1;PMS_P2;Temp;Humidity;BMP_temperature;BMP_pressure;BME280_temperature;BME280_humidity;BME280_pressure;Samples;Min_cycle;Max_cycle;Signal;HPM_P1;HPM_P2
2021/04/17 00:01:27;;;;;;;8.05;5.13;;;2.40;99.90;;;;;;5065351;28;20455;-77
2021/04/17 00:03:53;;;;;;;8.00;5.00;;;2.30;99.90;;;;;;5067088;28;20073;-76
2021/04/17 00:06:18;;;;;;;6.63;5.05;;;2.20;99.90;;;;;;5050509;28;20458;-77
2021/04/17 00:08:44;;;;;;;6.35;4.57;;;2.30;99.90;;;;;;5055488;28;20097;-77
2021/04/17 00:11:10;;;;;;;9.90;5.28;;;2.30;99.90;;;;;;5057860;28;20085;-77
2021/04/17 00:13:35;;;;;;;7.63;4.93;;;2.40;99.90;;;;;;5058788;28;20084;-77
2021/04/17 00:16:01;;;;;;;7.30;5.38;;;2.30;99.90;;;;;;5059655;28;20077;-77
2021/04/17 00:18:26;;;;;;;7.15;4.75;;;2.30;99.90;;;;;;5067513;28;20109;-76
2021/04/17 00:20:52;;;;;;;7.40;5.43;;;2.20;99.90;;;;;;5059402;28;20103;-76
2021/04/17 00:23:17;;;;;;;6.53;4.93;;;2.10;99.90;;;;;;5049556;28;20127;-77
2021/04/17 00:25:43;;;;;;;6.32;4.78;;;2.10;99.90;;;;;;5058505;28;20109;-76
2021/04/17 00:28:09;;;;;;;6.00;4.57;;;2.10;99.90;;;;;;5054596;28;20085;-76
2021/04/17 00:30:35;;;;;;;6.22;4.57;;;2.00;99.90;;;;;;5058032;28;20104;-76
2021/04/17 00:33:01;;;;;;;7.05;5.00;;;2.00;99.90;;;;;;5061556;28;20077;-77
2021/04/17 00:35:26;;;;;;;7.70;4.78;;;2.00;99.90;;;;;;5058926;28;20139;-76
2021/04/17 00:37:52;;;;;;;6.03;4.25;;;1.90;99.90;;;;;;5066369;28;20089;-76
2021/04/17 00:40:18;;;;;;;7.57;5.20;;;1.90;99.90;;;;;;5051234;28;20081;-76
2021/04/17 00:42:43;;;;;;;8.27;5.22;;;1.90;99.90;;;;;;5054998;28;20081;-77
2021/04/17 00:45:10;;;;;;;6.93;5.20;;;1.90;99.90;;;;;;5063773;28;20143;-76
2021/04/17 00:47:35;;;;;;;6.63;4.75;;;2.00;99.90;;;;;;5067855;28;20108;-77
2021/04/17 00:50:01;;;;;;;7.80;4.85;;;2.00;99.90;;;;;;5067593;28;20097;-77
2021/04/17 00:52:27;;;;;;;7.60;4.75;;;2.10;99.90;;;;;;5064101;28;20156;-76
2021/04/17 00:54:53;;;;;;;7.95;5.57;;;2.10;99.90;;;;;;5064643;28;20085;-77
2021/04/17 00:57:18;;;;;;;7.25;4.97;;;2.10;99.90;;;;;;5063481;28;20093;-76
2021/04/17 00:59:44;;;;;;;8.43;5.68;;;2.10;99.90;;;;;;5058467;28;20902;-76
2021/04/17 01:02:10;;;;;;;7.60;5.18;;;2.20;99.90;;;;;;5054103;28;20523;-76
2021/04/17 01:04:43;;;;;;;6.43;5.07;;;2.30;99.90;;;;;;5054237;28;20128;-76
2021/04/17 01:07:24;;;;;;;7.68;4.97;;;2.30;99.90;;;;;;5061077;28;20089;-77
2021/04/17 01:10:22;;;;;;;6.47;4.75;;;2.40;99.90;;;;;;5060055;28;20081;-77
2021/04/17 01:12:51;;;;;;;7.15;4.78;;;2.40;99.90;;;;;;5063104;28;20069;-76
2021/04/17 01:15:37;;;;;;;6.22;4.75;;;2.40;99.90;;;;;;5049344;28;20096;-76
2021/04/17 01:18:04;;;;;;;5.82;4.22;;;2.50;99.90;;;;;;5055020;28;20841;-76
2021/04/17 01:20:42;;;;;;;5.85;4.75;;;2.40;99.90;;;;;;5047985;28;20418;-77
2021/04/17 01:23:34;;;;;;;8.50;5.00;;;2.40;99.90;;;;;;5061232;28;20190;-76
2021/04/17 01:26:11;;;;;;;7.72;5.10;;;2.20;99.90;;;;;;5065444;28;20084;-76
2021/04/17 01:28:43;;;;;;;12.05;5.88;;;2.20;99.90;;;;;;5047625;28;20089;-77
2021/04/17 01:31:11;;;;;;;7.13;4.80;;;2.20;99.90;;;;;;5046969;28;20096;-76
2021/04/17 01:33:43;;;;;;;7.47;5.13;;;2.30;99.90;;;;;;5057737;28;20254;-77
2021/04/17 01:36:10;;;;;;;8.15;5.40;;;2.20;99.90;;;;;;5041982;28;20084;-77
2021/04/17 01:38:42;;;;;;;8.00;5.75;;;2.30;99.90;;;;;;5054135;28;20131;-77
2021/04/17 01:41:16;;;;;;;7.03;4.97;;;2.30;99.90;;;;;;5059671;28;20152;-77
2021/04/17 01:43:47;;;;;;;7.70;4.55;;;2.20;99.90;;;;;;5071473;23;20109;-76
2021/04/17 01:46:15;;;;;;;7.28;4.53;;;2.10;99.90;;;;;;5063718;28;20089;-75
2021/04/17 01:48:43;;;;;;;7.85;4.75;;;2.00;99.90;;;;;;5067073;28;20069;-75
2021/04/17 01:51:09;;;;;;;6.40;4.40;;;1.90;99.90;;;;;;5065501;28;20077;-76
2021/04/17 01:53:38;;;;;;;6.13;4.68;;;1.90;99.90;;;;;;5053850;28;20100;-76
2021/04/17 01:56:05;;;;;;;6.90;4.25;;;1.90;99.90;;;;;;5069188;28;20076;-76
2021/04/17 01:58:35;;;;;;;5.72;4.55;;;1.90;99.90;;;;;;5061777;28;20073;-75
2021/04/17 02:01:00;;;;;;;5.78;4.47;;;1.80;99.90;;;;;;5071189;28;20130;-78
2021/04/17 02:03:26;;;;;;;5.65;4.40;;;1.80;99.90;;;;;;5067799;28;20097;-75
2021/04/17 02:05:53;;;;;;;15.43;5.65;;;1.80;99.90;;;;;;5053647;28;20119;-75
2021/04/17 02:08:19;;;;;;;6.90;5.07;;;1.80;99.90;;;;;;5054370;28;20099;-75
2021/04/17 02:10:48;;;;;;;6.20;4.35;;;1.90;99.90;;;;;;5057225;28;20143;-76
2021/04/17 02:13:14;;;;;;;6.72;4.50;;;1.90;99.90;;;;;;5057304;28;20085;-75
2021/04/17 02:15:42;;;;;;;5.75;4.38;;;1.80;99.90;;;;;;5056011;28;20156;-76
2021/04/17 02:18:33;;;;;;;7.93;5.25;;;1.70;99.90;;;;;;5062861;28;20076;-75
2021/04/17 02:21:08;;;;;;;7.22;4.80;;;1.70;99.90;;;;;;5061344;28;20164;-75
2021/04/17 02:23:36;;;;;;;6.97;4.43;;;1.80;99.90;;;;;;5067912;28;20089;-75
2021/04/17 02:26:03;;;;;;;7.10;5.35;;;1.80;99.90;;;;;;5033230;28;20084;-78
2021/04/17 02:28:30;;;;;;;8.63;5.25;;;1.70;99.90;;;;;;5051496;28;20159;-76
2021/04/17 02:30:56;;;;;;;5.85;4.45;;;1.50;99.90;;;;;;5050716;28;20135;-75
2021/04/17 02:33:22;;;;;;;6.70;4.95;;;1.50;99.90;;;;;;5037810;28;20316;-75
2021/04/17 02:35:48;;;;;;;7.03;4.90;;;1.60;99.90;;;;;;5051226;28;20341;-75
2021/04/17 02:38:14;;;;;;;7.22;5.30;;;1.60;99.90;;;;;;5052652;28;20452;-75
2021/04/17 02:40:39;;;;;;;6.50;4.63;;;1.60;99.90;;;;;;5064053;28;20126;-76
2021/04/17 02:43:05;;;;;;;9.38;4.65;;;1.60;99.90;;;;;;5045491;28;20101;-76
2021/04/17 02:45:31;;;;;;;6.93;4.97;;;1.60;99.90;;;;;;5037271;28;20081;-79
2021/04/17 02:47:56;;;;;;;9.65;5.18;;;1.60;99.90;;;;;;5061927;28;20073;-75
2021/04/17 02:50:23;;;;;;;7.15;4.63;;;1.60;99.90;;;;;;5061648;28;20500;-77
2021/04/17 02:52:49;;;;;;;8.15;5.65;;;1.50;99.90;;;;;;5052213;28;20562;-75
2021/04/17 02:55:16;;;;;;;8.05;4.82;;;1.50;99.90;;;;;;5068987;28;20096;-78
2021/04/17 02:57:41;;;;;;;6.05;4.38;;;1.60;99.90;;;;;;5054328;28;20066;-75
2021/04/17 03:00:09;;;;;;;6.78;5.03;;;1.70;99.90;;;;;;5052974;28;20085;-76
2021/04/17 03:02:34;;;;;;;7.07;4.97;;;1.60;99.90;;;;;;5059990;28;20126;-76
2021/04/17 03:05:00;;;;;;;8.45;5.78;;;1.50;99.90;;;;;;5052547;28;20447;-75
2021/04/17 03:07:26;;;;;;;6.68;5.00;;;1.60;99.90;;;;;;5056450;28;21449;-76
2021/04/17 03:09:52;;;;;;;10.27;6.50;;;1.60;99.90;;;;;;5047324;28;20143;-76
2021/04/17 03:12:18;;;;;;;9.05;5.68;;;1.70;99.90;;;;;;5068661;28;20089;-75
2021/04/17 03:14:43;;;;;;;8.25;5.80;;;1.70;99.90;;;;;;5055159;28;20197;-76
2021/04/17 03:17:09;;;;;;;8.38;5.53;;;1.70;99.90;;;;;;5047989;28;20072;-75
2021/04/17 03:19:35;;;;;;;9.77;5.88;;;1.80;99.90;;;;;;5055167;28;20069;-75
2021/04/17 03:22:01;;;;;;;6.63;5.15;;;1.80;99.90;;;;;;5049668;28;20126;-76
2021/04/17 03:24:27;;;;;;;8.52;5.82;;;1.70;99.90;;;;;;5048137;28;20090;-75
2021/04/17 03:26:53;;;;;;;8.40;5.90;;;1.70;99.90;;;;;;5051081;28;20989;-75
2021/04/17 03:29:18;;;;;;;8.50;5.50;;;1.80;99.90;;;;;;5050925;28;20475;-75
2021/04/17 03:31:45;;;;;;;8.73;6.00;;;1.80;99.90;;;;;;5049940;28;20069;-75
2021/04/17 03:34:11;;;;;;;8.13;6.00;;;1.60;99.90;;;;;;5062799;28;20576;-76
2021/04/17 03:36:37;;;;;;;7.95;5.60;;;1.60;99.90;;;;;;5050778;28;20073;-76
2021/04/17 03:39:04;;;;;;;6.88;4.85;;;1.70;99.90;;;;;;5069557;28;20126;-76
2021/04/17 03:41:29;;;;;;;7.93;5.25;;;1.70;99.90;;;;;;5059947;28;20493;-75
2021/04/17 03:43:55;;;;;;;7.13;4.93;;;1.60;99.90;;;;;;5065180;28;20097;-75
2021/04/17 03:46:22;;;;;;;9.27;6.07;;;1.60;99.90;;;;;;5050037;28;20594;-75
2021/04/17 03:48:48;;;;;;;7.28;4.82;;;1.50;99.90;;;;;;5053032;28;20479;-75
2021/04/17 03:51:13;;;;;;;7.22;5.57;;;1.50;99.90;;;;;;5058629;28;20176;-75
2021/04/17 03:53:39;;;;;;;7.22;5.35;;;1.40;99.90;;;;;;5063307;28;20512;-77
2021/04/17 03:56:05;;;;;;;7.43;5.45;;;1.50;99.90;;;;;;5049845;28;20082;-77
2021/04/17 03:58:30;;;;;;;7.45;5.05;;;1.40;99.90;;;;;;5050143;28;20115;-76
2021/04/17 04:00:56;;;;;;;8.75;5.45;;;1.40;99.90;;;;;;5054401;28;20104;-75
2021/04/17 04:03:21;;;;;;;8.93;6.05;;;1.40;99.90;;;;;;5049753;28;20108;-75
2021/04/17 04:05:47;;;;;;;9.77;6.68;;;1.50;99.90;;;;;;5049224;28;20117;-76
2021/04/17 04:08:13;;;;;;;8.75;6.10;;;1.30;99.90;;;;;;5053471;28;20081;-75
2021/04/17 04:10:38;;;;;;;9.35;6.53;;;1.20;99.90;;;;;;5039977;28;20791;-75
2021/04/17 04:13:04;;;;;;;8.38;6.32;;;1.20;99.90;;;;;;5054597;28;20158;-75
2021/04/17 04:15:29;;;;;;;9.15;6.75;;;1.30;99.90;;;;;;5069001;28;20103;-75
2021/04/17 04:17:55;;;;;;;8.43;6.15;;;1.40;99.90;;;;;;5064206;28;20160;-75
2021/04/17 04:20:20;;;;;;;9.48;6.85;;;1.30;99.90;;;;;;5060934;28;20564;-75
2021/04/17 04:22:46;;;;;;;10.02;6.57;;;1.20;99.90;;;;;;5051147;28;20081;-75
2021/04/17 04:25:12;;;;;;;7.88;5.97;;;1.20;99.90;;;;;;5069961;28;20077;-76
2021/04/17 04:27:38;;;;;;;9.75;7.07;;;1.20;99.90;;;;;;5050795;28;20118;-75
2021/04/17 04:30:08;;;;;;;9.40;6.53;;;1.20;99.90;;;;;;5055056;28;20505;-76
2021/04/17 04:32:34;;;;;;;8.75;6.68;;;1.30;99.90;;;;;;5058286;28;20152;-76
2021/04/17 04:34:59;;;;;;;8.85;6.25;;;1.30;99.90;;;;;;5060970;28;20084;-76
2021/04/17 04:37:25;;;;;;;10.38;7.28;;;1.30;99.90;;;;;;5056991;28;20069;-76
2021/04/17 04:39:51;;;;;;;10.07;6.93;;;1.50;99.90;;;;;;5051290;28;20460;-75
2021/04/17 04:42:16;;;;;;;8.85;6.53;;;1.50;99.90;;;;;;5035005;28;20073;-75
2021/04/17 04:44:42;;;;;;;10.13;6.85;;;1.60;99.90;;;;;;5078899;28;20489;-75
2021/04/17 04:47:08;;;;;;;9.80;6.75;;;1.70;99.90;;;;;;5064967;28;20545;-75
2021/04/17 04:49:33;;;;;;;9.60;7.18;;;1.50;99.90;;;;;;5032462;28;20099;-76
2021/04/17 04:51:59;;;;;;;9.57;5.80;;;1.50;99.90;;;;;;5069196;28;20750;-75
2021/04/17 04:54:25;;;;;;;9.38;6.72;;;1.70;99.90;;;;;;5031646;28;20097;-75
2021/04/17 04:56:50;;;;;;;9.60;7.03;;;1.70;99.90;;;;;;5053226;28;20438;-75
2021/04/17 04:59:16;;;;;;;10.02;7.28;;;1.80;99.90;;;;;;5059349;28;20095;-75
2021/04/17 05:01:41;;;;;;;8.60;6.10;;;1.80;99.90;;;;;;5059836;28;20081;-75
2021/04/17 05:04:07;;;;;;;10.23;7.13;;;1.90;99.90;;;;;;5052093;28;20166;-75
2021/04/17 05:06:33;;;;;;;10.43;6.80;;;1.90;99.90;;;;;;5055908;28;20073;-75
2021/04/17 05:08:59;;;;;;;11.15;7.15;;;1.70;99.90;;;;;;5050756;28;20497;-75
2021/04/17 05:11:24;;;;;;;10.90;7.50;;;1.90;99.90;;;;;;5057304;28;20738;-77
2021/04/17 05:13:51;;;;;;;11.63;7.35;;;1.90;99.90;;;;;;5052866;28;20089;-78
2021/04/17 05:16:17;;;;;;;12.15;8.02;;;1.90;99.90;;;;;;5051130;28;20073;-75
2021/04/17 05:18:42;;;;;;;13.98;7.97;;;2.00;99.90;;;;;;5033243;28;20783;-75
2021/04/17 05:21:08;;;;;;;15.35;9.27;;;2.10;99.90;;;;;;5045926;28;20109;-76
2021/04/17 05:23:33;;;;;;;15.70;10.52;;;2.20;99.90;;;;;;5054503;28;20094;-76
2021/04/17 05:26:00;;;;;;;14.10;8.27;;;2.20;99.90;;;;;;5049255;28;20099;-76
2021/04/17 05:28:25;;;;;;;9.93;6.85;;;2.30;99.90;;;;;;5063179;28;20533;-75
2021/04/17 05:30:51;;;;;;;9.88;6.97;;;2.10;99.90;;;;;;5052934;28;20137;-75
2021/04/17 05:33:16;;;;;;;10.70;8.13;;;2.00;99.90;;;;;;5067478;28;20113;-76
2021/04/17 05:35:42;;;;;;;9.27;6.50;;;2.10;99.90;;;;;;5053243;28;20136;-76
2021/04/17 05:38:07;;;;;;;10.60;7.63;;;2.10;99.90;;;;;;5053765;28;20076;-75
2021/04/17 05:40:33;;;;;;;11.02;7.70;;;2.20;99.90;;;;;;5055894;28;20076;-75
2021/04/17 05:42:59;;;;;;;14.13;9.02;;;2.30;99.90;;;;;;5064721;28;20108;-76
2021/04/17 05:45:24;;;;;;;11.65;8.02;;;2.30;99.90;;;;;;5083596;28;20081;-75
2021/04/17 05:47:50;;;;;;;14.05;8.50;;;2.40;99.90;;;;;;5046120;28;20081;-76
2021/04/17 05:50:15;;;;;;;12.20;8.63;;;2.50;99.90;;;;;;5052126;28;20097;-75
2021/04/17 05:52:41;;;;;;;14.20;8.93;;;2.50;99.90;;;;;;5064183;28;20076;-75
2021/04/17 05:55:07;;;;;;;15.52;9.85;;;2.40;99.90;;;;;;5034530;28;20169;-76
2021/04/17 05:57:33;;;;;;;11.77;8.52;;;2.50;99.90;;;;;;5056125;28;20530;-77
2021/04/17 05:59:58;;;;;;;13.98;9.98;;;2.50;99.90;;;;;;5056521;28;20084;-75
2021/04/17 06:02:24;;;;;;;13.60;9.40;;;2.60;99.90;;;;;;5060835;28;20176;-77
2021/04/17 06:04:50;;;;;;;15.50;10.00;;;2.60;99.90;;;;;;5055515;28;20085;-75
2021/04/17 06:07:15;;;;;;;15.02;9.55;;;2.70;99.90;;;;;;5070359;28;20091;-75
2021/04/17 06:09:41;;;;;;;14.70;9.75;;;2.80;99.90;;;;;;5061807;28;20104;-77
2021/04/17 06:12:07;;;;;;;15.63;9.75;;;2.80;99.90;;;;;;5042600;28;20077;-75
2021/04/17 06:14:32;;;;;;;18.13;11.18;;;2.90;99.90;;;;;;5056689;28;20093;-76
2021/04/17 06:16:58;;;;;;;16.27;10.13;;;2.80;99.90;;;;;;5051109;28;20137;-75
2021/04/17 06:19:23;;;;;;;15.55;9.65;;;2.90;99.90;;;;;;5063059;28;20092;-77
2021/04/17 06:21:49;;;;;;;15.15;9.93;;;3.00;99.90;;;;;;5071910;28;20073;-77
2021/04/17 06:24:15;;;;;;;16.98;10.57;;;3.10;99.90;;;;;;5061185;28;20558;-75
2021/04/17 06:26:41;;;;;;;18.33;9.55;;;3.00;99.90;;;;;;5035378;28;20474;-75
2021/04/17 06:29:07;;;;;;;14.95;9.85;;;3.10;99.90;;;;;;5058619;28;20669;-75
2021/04/17 06:31:33;;;;;;;16.90;10.65;;;3.10;99.90;;;;;;5066802;28;20084;-75
2021/04/17 06:33:58;;;;;;;16.80;10.65;;;3.20;99.90;;;;;;5065138;28;20092;-76
2021/04/17 06:36:24;;;;;;;15.68;9.82;;;3.10;99.90;;;;;;5054674;28;20534;-75
2021/04/17 06:38:50;;;;;;;16.88;10.45;;;3.10;99.90;;;;;;5069013;28;20087;-75
2021/04/17 06:41:17;;;;;;;17.08;9.43;;;3.10;99.90;;;;;;5061670;28;20081;-77
2021/04/17 06:43:43;;;;;;;15.80;10.55;;;3.20;99.90;;;;;;5070780;28;20203;-76
2021/04/17 06:46:13;;;;;;;17.50;10.95;;;3.20;99.90;;;;;;5039294;28;20085;-75
2021/04/17 06:48:40;;;;;;;17.42;9.75;;;3.30;99.90;;;;;;5057978;28;20104;-75
2021/04/17 06:51:11;;;;;;;16.02;10.43;;;3.30;99.90;;;;;;5051600;28;20089;-75
2021/04/17 06:53:39;;;;;;;17.73;10.18;;;3.20;99.90;;;;;;5051813;28;20123;-75
2021/04/17 06:56:05;;;;;;;16.60;10.30;;;3.20;99.90;;;;;;5057367;28;20081;-75
2021/04/17 06:58:31;;;;;;;15.80;9.80;;;3.40;99.90;;;;;;5052583;28;20080;-75
2021/04/17 07:00:58;;;;;;;17.30;10.73;;;3.20;99.90;;;;;;5063840;28;20082;-76
2021/04/17 07:03:24;;;;;;;17.42;10.07;;;3.40;99.90;;;;;;5060470;28;20443;-75
2021/04/17 07:05:49;;;;;;;19.85;12.00;;;3.40;99.90;;;;;;5059576;28;20096;-75
2021/04/17 07:08:15;;;;;;;18.25;10.38;;;3.40;99.90;;;;;;5064006;28;20073;-77
2021/04/17 07:10:41;;;;;;;18.17;10.43;;;3.40;99.90;;;;;;5034825;28;20097;-76
2021/04/17 07:13:16;;;;;;;15.15;9.82;;;3.40;99.90;;;;;;5059220;28;20113;-76
2021/04/17 07:15:44;;;;;;;17.05;11.18;;;3.40;99.90;;;;;;5062757;28;20073;-77
2021/04/17 07:18:28;;;;;;;19.65;11.13;;;3.40;99.90;;;;;;5042137;28;20077;-76
2021/04/17 07:20:55;;;;;;;19.83;11.97;;;3.40;99.90;;;;;;5064505;28;20073;-75
2021/04/17 07:23:30;;;;;;;18.35;11.52;;;3.40;99.90;;;;;;5062202;28;20355;-76
2021/04/17 07:26:18;;;;;;;19.55;9.60;;;3.50;99.90;;;;;;5051908;28;20076;-76
2021/04/17 07:29:00;;;;;;;16.98;10.40;;;3.50;99.90;;;;;;5059143;28;20088;-75
2021/04/17 07:31:28;;;;;;;15.50;9.35;;;3.60;99.90;;;;;;5053819;28;20139;-76
2021/04/17 07:33:55;;;;;;;14.98;9.45;;;3.40;99.90;;;;;;5051613;28;20621;-76
2021/04/17 07:36:22;;;;;;;15.23;9.60;;;3.50;99.90;;;;;;5048313;28;20076;-76
2021/04/17 07:38:48;;;;;;;16.33;9.65;;;3.60;99.90;;;;;;5057314;28;20530;-76
2021/04/17 07:41:20;;;;;;;14.10;9.00;;;3.60;99.90;;;;;;5057634;28;20160;-77
2021/04/17 07:43:54;;;;;;;14.45;9.05;;;3.60;99.90;;;;;;5057122;28;20121;-77
2021/04/17 07:46:29;;;;;;;14.52;9.02;;;3.60;99.90;;;;;;5030858;28;20489;-77
2021/04/17 07:49:19;;;;;;;17.83;10.40;;;3.70;99.90;;;;;;5031803;28;20081;-76
2021/04/17 07:52:04;;;;;;;13.25;8.20;;;3.70;99.90;;;;;;5059464;28;20081;-77
2021/04/17 07:54:30;;;;;;;14.10;7.75;;;3.70;99.90;;;;;;5046791;28;20095;-77
2021/04/17 07:57:02;;;;;;;12.85;7.72;;;3.70;99.90;;;;;;5063091;28;20073;-77
2021/04/17 07:59:27;;;;;;;18.33;8.63;;;3.80;99.90;;;;;;5055624;28;20101;-76
2021/04/17 08:01:53;;;;;;;14.55;8.05;;;3.80;99.90;;;;;;5064586;28;20100;-77
2021/04/17 08:04:24;;;;;;;12.77;7.28;;;3.80;99.90;;;;;;5059206;28;20093;-77
2021/04/17 08:06:51;;;;;;;12.50;7.30;;;3.80;99.90;;;;;;5057369;28;20081;-75
2021/04/17 08:09:17;;;;;;;11.60;6.60;;;3.70;99.90;;;;;;5056810;28;20077;-77
2021/04/17 08:11:45;;;;;;;12.70;6.95;;;3.80;99.90;;;;;;5061534;28;20112;-77
2021/04/17 08:14:10;;;;;;;13.73;7.45;;;3.90;99.90;;;;;;5047660;28;20100;-77
2021/04/17 08:16:38;;;;;;;12.30;7.68;;;3.90;99.90;;;;;;5049085;28;20152;-77
2021/04/17 08:19:04;;;;;;;13.80;8.05;;;4.00;99.90;;;;;;5032123;28;20081;-76
2021/04/17 08:21:30;;;;;;;8.40;6.00;;;4.10;99.90;;;;;;5056942;28;20073;-77
2021/04/17 08:23:56;;;;;;;11.43;6.45;;;4.10;99.90;;;;;;5046182;28;20937;-75
2021/04/17 08:26:22;;;;;;;11.90;7.38;;;4.10;99.90;;;;;;5051667;28;20085;-75
2021/04/17 08:28:50;;;;;;;10.13;6.50;;;4.10;99.90;;;;;;5035048;28;20069;-75
2021/04/17 08:31:31;;;;;;;10.38;6.63;;;4.10;99.90;;;;;;5050364;28;20092;-75
2021/04/17 08:34:09;;;;;;;10.95;6.68;;;4.10;99.90;;;;;;5054283;28;20093;-75
2021/04/17 08:36:46;;;;;;;11.45;6.95;;;4.00;99.90;;;;;;5053136;28;20073;-80
2021/04/17 08:39:33;;;;;;;10.23;6.20;;;4.00;99.90;;;;;;5051948;28;20073;-78
2021/04/17 08:41:59;;;;;;;9.75;6.35;;;4.00;99.90;;;;;;5060903;28;20697;-78
2021/04/17 08:44:40;;;;;;;9.68;6.63;;;4.10;99.90;;;;;;5060893;28;20766;-81
2021/04/17 08:47:08;;;;;;;9.48;6.45;;;4.10;99.90;;;;;;5059686;28;20540;-79
2021/04/17 08:49:36;;;;;;;11.85;7.13;;;4.10;99.90;;;;;;5051333;28;20101;-77
2021/04/17 08:52:24;;;;;;;14.55;8.05;;;4.10;99.90;;;;;;5053051;28;20086;-80
2021/04/17 08:55:11;;;;;;;10.95;7.07;;;4.20;99.90;;;;;;5056741;28;20071;-79
2021/04/17 08:57:37;;;;;;;14.45;9.05;;;4.30;99.90;;;;;;5062380;28;20065;-80
2021/04/17 09:00:06;;;;;;;13.70;6.85;;;4.30;99.90;;;;;;5061247;28;20442;-80
2021/04/17 09:02:46;;;;;;;12.57;8.30;;;4.30;99.90;;;;;;5056194;28;20084;-77
2021/04/17 09:05:17;;;;;;;11.02;7.30;;;4.30;99.90;;;;;;5055537;28;20200;-77
2021/04/17 09:07:45;;;;;;;12.63;7.68;;;4.30;99.90;;;;;;5037036;28;20696;-79
2021/04/17 09:10:38;;;;;;;11.30;6.93;;;4.40;99.90;;;;;;5058094;28;20181;-77
2021/04/17 09:13:10;;;;;;;13.73;7.95;;;4.30;99.90;;;;;;5051262;28;20171;-78
2021/04/17 09:16:01;;;;;;;11.98;7.75;;;4.30;99.90;;;;;;5066377;28;20538;-78
2021/04/17 09:18:36;;;;;;;15.73;8.85;;;4.30;99.90;;;;;;5062658;28;20108;-78
2021/04/17 09:21:07;;;;;;;11.45;7.35;;;4.30;99.90;;;;;;5065623;28;20518;-79
2021/04/17 09:23:37;;;;;;;13.38;7.63;;;4.30;99.90;;;;;;5072273;28;20474;-78
2021/04/17 09:26:03;;;;;;;14.25;8.30;;;4.30;99.90;;;;;;5056264;28;20172;-77
2021/04/17 09:28:39;;;;;;;14.77;10.18;;;4.40;99.90;;;;;;5052486;28;20141;-79
2021/04/17 09:31:06;;;;;;;13.02;8.52;;;4.40;99.90;;;;;;5057984;28;20108;-79
2021/04/17 09:33:32;;;;;;;11.95;7.78;;;4.40;99.90;;;;;;5037635;28;20085;-75
2021/04/17 09:35:58;;;;;;;12.13;8.23;;;4.40;99.90;;;;;;5035320;28;20127;-77
2021/04/17 09:38:31;;;;;;;12.38;7.53;;;4.50;99.90;;;;;;5058032;28;20074;-75
2021/04/17 09:40:57;;;;;;;11.45;7.47;;;4.50;99.90;;;;;;5041595;28;20443;-76
2021/04/17 09:43:25;;;;;;;12.90;8.13;;;4.50;99.90;;;;;;5060176;28;20167;-77
2021/04/17 09:45:51;;;;;;;13.48;8.13;;;4.50;99.90;;;;;;5055126;28;20082;-76
2021/04/17 09:48:20;;;;;;;13.93;8.75;;;4.40;99.90;;;;;;5064614;28;20077;-78
2021/04/17 09:50:46;;;;;;;11.38;7.60;;;4.50;99.90;;;;;;5057744;28;20096;-78
2021/04/17 09:53:18;;;;;;;11.75;8.55;;;4.50;99.90;;;;;;5062577;28;20085;-77
2021/04/17 09:55:56;;;;;;;14.05;7.65;;;4.50;99.90;;;;;;5053176;28;20714;-77
2021/04/17 09:58:36;;;;;;;12.40;7.55;;;4.60;99.90;;;;;;5065964;28;20411;-77
2021/04/17 10:01:16;;;;;;;12.48;7.72;;;4.60;99.90;;;;;;5064897;28;20077;-77
2021/04/17 10:03:44;;;;;;;12.15;6.78;;;4.60;99.90;;;;;;5071499;28;20138;-76
2021/04/17 10:06:39;;;;;;;11.93;7.22;;;4.60;99.90;;;;;;5053473;28;20073;-76
2021/04/17 10:09:04;;;;;;;15.02;9.05;;;4.60;99.90;;;;;;5070261;28;20076;-76
2021/04/17 10:11:30;;;;;;;11.50;7.07;;;4.70;99.90;;;;;;5064683;28;20152;-75
2021/04/17 10:13:56;;;;;;;13.30;7.57;;;4.80;99.90;;;;;;5070034;28;20085;-77
2021/04/17 10:16:25;;;;;;;13.00;8.07;;;4.80;99.90;;;;;;5044715;28;20086;-78
2021/04/17 10:18:51;;;;;;;10.15;7.68;;;4.80;99.90;;;;;;5044210;28;20597;-78
2021/04/17 10:21:23;;;;;;;10.48;8.23;;;4.80;99.90;;;;;;5079515;28;20668;-78
2021/04/17 10:24:24;;;;;;;13.52;8.38;;;4.90;99.90;;;;;;5059097;28;20081;-76
2021/04/17 10:26:57;;;;;;;13.75;9.20;;;4.80;99.90;;;;;;5067752;28;20084;-79
2021/04/17 10:30:06;;;;;;;15.57;10.82;;;4.80;99.90;;;;;;5058174;28;20152;-79
2021/04/17 10:32:31;;;;;;;23.58;14.10;;;4.80;99.90;;;;;;5053288;28;20176;-77
2021/04/17 10:35:00;;;;;;;17.65;11.90;;;4.90;99.90;;;;;;5055657;28;20843;-77
2021/04/17 10:37:26;;;;;;;19.35;11.48;;;4.90;99.90;;;;;;5063719;28;20723;-77
2021/04/17 10:40:05;;;;;;;15.75;10.85;;;5.00;99.90;;;;;;5034954;28;20081;-77
2021/04/17 10:42:56;;;;;;;17.05;12.05;;;5.10;99.90;;;;;;5054514;28;20436;-77
2021/04/17 10:45:38;;;;;;;13.00;9.40;;;5.10;99.90;;;;;;5064228;28;20227;-77
2021/04/17 10:48:05;;;;;;;13.77;9.57;;;5.20;99.90;;;;;;5061406;28;20087;-77
2021/04/17 10:50:38;;;;;;;15.63;9.93;;;5.10;99.90;;;;;;5060242;28;20555;-78
2021/04/17 10:53:15;;;;;;;17.70;11.38;;;5.20;99.90;;;;;;5061774;28;20501;-77
2021/04/17 10:55:48;;;;;;;22.85;11.63;;;5.30;99.90;;;;;;5059609;28;20127;-77
2021/04/17 10:58:31;;;;;;;15.23;9.57;;;5.30;99.90;;;;;;5053073;28;20073;-78
2021/04/17 11:01:06;;;;;;;15.00;9.18;;;5.30;99.90;;;;;;5056413;28;20092;-77
2021/04/17 11:03:46;;;;;;;13.60;7.93;;;5.30;99.90;;;;;;5062985;28;20192;-77
2021/04/17 11:06:20;;;;;;;13.88;8.57;;;5.20;99.90;;;;;;5056088;28;20160;-77
2021/04/17 11:08:47;;;;;;;11.80;8.20;;;5.30;99.90;;;;;;5055002;28;20231;-79
2021/04/17 11:11:18;;;;;;;13.18;8.02;;;5.30;99.90;;;;;;5035235;28;20584;-78
2021/04/17 11:13:45;;;;;;;14.57;7.65;;;5.40;99.90;;;;;;5049992;28;20147;-82
2021/04/17 11:16:12;;;;;;;12.80;7.90;;;5.50;99.90;;;;;;5064290;28;20497;-81
2021/04/17 11:18:43;;;;;;;12.20;7.32;;;5.50;99.90;;;;;;5059318;28;20096;-81
2021/04/17 11:21:12;;;;;;;14.32;7.47;;;5.60;99.90;;;;;;5049320;28;20723;-79
2021/04/17 11:23:56;;;;;;;10.25;7.13;;;5.70;99.90;;;;;;5035476;28;20097;-79
2021/04/17 11:26:38;;;;;;;12.07;7.05;;;5.70;99.90;;;;;;5034069;28;20085;-77
2021/04/17 11:29:07;;;;;;;11.45;7.80;;;5.70;99.90;;;;;;5053643;28;20069;-76
2021/04/17 11:31:34;;;;;;;10.98;8.00;;;5.70;99.90;;;;;;5063147;28;20562;-77
2021/04/17 11:34:02;;;;;;;11.48;7.80;;;5.80;99.90;;;;;;5069648;28;20089;-83
2021/04/17 11:36:31;;;;;;;10.00;7.43;;;5.80;99.90;;;;;;5058888;28;20171;-77
2021/04/17 11:38:57;;;;;;;9.18;6.03;;;5.80;99.90;;;;;;5077575;28;20069;-77
2021/04/17 11:41:24;;;;;;;10.70;7.05;;;5.80;99.90;;;;;;5077898;28;20371;-76
2021/04/17 11:43:50;;;;;;;11.07;7.25;;;5.80;99.90;;;;;;5065241;28;20120;-78
2021/04/17 11:46:17;;;;;;;9.57;6.88;;;5.90;99.90;;;;;;5053663;28;20505;-77
2021/04/17 11:48:44;;;;;;;9.45;6.75;;;5.90;99.90;;;;;;5057767;28;20087;-78
2021/04/17 11:51:10;;;;;;;9.00;5.90;;;5.80;99.90;;;;;;5045223;28;20547;-76
2021/04/17 11:53:37;;;;;;;9.20;5.85;;;5.80;99.90;;;;;;5051141;28;20093;-75
2021/04/17 11:56:04;;;;;;;9.60;6.47;;;5.90;99.90;;;;;;5040028;28;20531;-78
2021/04/17 11:58:30;;;;;;;7.65;6.15;;;5.90;99.90;;;;;;5031919;28;20084;-77
2021/04/17 12:00:56;;;;;;;14.27;6.60;;;5.90;99.90;;;;;;5050204;28;20523;-75
2021/04/17 12:03:22;;;;;;;9.77;6.38;;;5.80;99.90;;;;;;5052182;28;20105;-80
2021/04/17 12:05:52;;;;;;;10.30;6.15;;;5.80;99.90;;;;;;5049378;28;20163;-77
2021/04/17 12:08:18;;;;;;;9.68;6.72;;;5.90;99.90;;;;;;5053766;28;20105;-77
2021/04/17 12:10:44;;;;;;;11.07;7.97;;;5.90;99.90;;;;;;5055416;28;20097;-79
2021/04/17 12:13:11;;;;;;;9.52;6.25;;;5.90;99.90;;;;;;5061605;28;20101;-77
2021/04/17 12:15:38;;;;;;;11.75;6.97;;;5.80;99.90;;;;;;5058209;28;20079;-78
2021/04/17 12:18:04;;;;;;;10.60;6.55;;;5.90;99.90;;;;;;5065157;28;20105;-78
2021/04/17 12:20:29;;;;;;;13.18;8.52;;;5.90;99.90;;;;;;5062989;28;20108;-77
2021/04/17 12:22:56;;;;;;;13.10;7.82;;;5.90;99.90;;;;;;5059181;28;20150;-78
2021/04/17 12:25:22;;;;;;;11.68;7.82;;;6.00;99.90;;;;;;5057930;28;20092;-77
2021/04/17 12:27:48;;;;;;;11.52;8.68;;;6.00;99.90;;;;;;5038397;28;20105;-81
2021/04/17 12:30:14;;;;;;;11.10;7.78;;;6.00;99.90;;;;;;5048414;28;20537;-76
2021/04/17 12:32:40;;;;;;;12.75;7.18;;;5.90;99.90;;;;;;5049409;28;20562;-76
2021/04/17 12:35:12;;;;;;;11.30;6.63;;;5.90;99.90;;;;;;5049627;28;20082;-76
2021/04/17 12:37:38;;;;;;;11.25;6.55;;;5.90;99.90;;;;;;5049481;28;20069;-76
2021/04/17 12:40:04;;;;;;;12.63;7.45;;;5.90;99.90;;;;;;5059448;28;20085;-75
2021/04/17 12:42:30;;;;;;;11.57;8.13;;;5.80;99.90;;;;;;5063671;28;20081;-75
2021/04/17 12:44:56;;;;;;;10.80;7.13;;;5.90;99.90;;;;;;5070392;28;20088;-76
2021/04/17 12:47:21;;;;;;;11.57;6.50;;;5.90;99.90;;;;;;5058980;28;20089;-77
2021/04/17 12:49:47;;;;;;;13.40;8.02;;;5.90;99.90;;;;;;5065567;28;20101;-76
2021/04/17 12:52:12;;;;;;;11.38;8.07;;;5.90;99.90;;;;;;5035415;28;20086;-76
2021/04/17 12:54:38;;;;;;;12.43;7.65;;;6.00;99.90;;;;;;5060851;28;20105;-75
2021/04/17 12:57:04;;;;;;;12.20;6.63;;;5.90;99.90;;;;;;5054554;28;20077;-76
2021/04/17 12:59:29;;;;;;;19.50;12.73;;;5.90;99.90;;;;;;5061198;28;20070;-77